createdAt,value
2023-03-26T00:02:15.523Z,93601.69
2023-03-26T00:05:19.183Z,93600.31
2023-03-26T00:08:22.731Z,93599.56
2023-03-26T00:11:28.093Z,93604.00
2023-03-26T00:14:31.421Z,93602.56
2023-03-26T00:17:35.132Z,93599.53
2023-03-26T00:20:39.027Z,93600.63
2023-03-26T00:23:43.585Z,93600.44
2023-03-26T00:26:52.168Z,93605.56
2023-03-26T00:29:57.030Z,93610.81
2023-03-26T00:33:03.319Z,93606.38
2023-03-26T00:36:11.451Z,93613.84
2023-03-26T00:39:16.066Z,93618.91
2023-03-26T00:42:18.991Z,93618.78
2023-03-26T00:45:55.961Z,93617.75
2023-03-26T00:49:01.008Z,93623.16
2023-03-26T00:52:05.023Z,93613.28
2023-03-26T00:55:09.080Z,93624.03
2023-03-26T00:58:13.335Z,93615.84
2023-03-26T01:01:21.404Z,93618.19
2023-03-26T01:04:31.814Z,93618.34
2023-03-26T01:07:35.681Z,93614.34
2023-03-26T01:10:39.693Z,93616.91
2023-03-26T01:13:50.790Z,93622.78
2023-03-26T01:17:02.278Z,93622.16
2023-03-26T01:20:27.266Z,93622.03
2023-03-26T01:23:49.649Z,93620.50
2023-03-26T01:27:10.830Z,93623.50
2023-03-26T01:30:35.788Z,93622.69
2023-03-26T01:33:46.958Z,93620.03
2023-03-26T01:37:18.606Z,93615.78
2023-03-26T01:40:27.803Z,93619.94
2023-03-26T01:43:40.200Z,93612.84
2023-03-26T01:46:45.556Z,93615.50
2023-03-26T01:49:49.661Z,93611.81
2023-03-26T01:52:52.684Z,93612.66
2023-03-26T01:56:14.003Z,93616.84
2023-03-26T01:59:43.141Z,93609.19
2023-03-26T02:02:55.371Z,93614.19
2023-03-26T02:06:08.712Z,93608.47
2023-03-26T02:09:18.796Z,93606.53
2023-03-26T02:12:23.830Z,93606.41
2023-03-26T02:15:27.463Z,93608.88
2023-03-26T02:18:37.541Z,93605.03
2023-03-26T02:21:41.176Z,93602.59
2023-03-26T02:24:45.119Z,93604.84
2023-03-26T02:27:49.919Z,93604.41
2023-03-26T02:30:58.562Z,93608.13
2023-03-26T02:34:01.772Z,93600.59
2023-03-26T02:37:07.654Z,93603.28
2023-03-26T02:40:36.079Z,93597.59
2023-03-26T02:43:39.118Z,93592.72
2023-03-26T02:46:45.361Z,93593.88
2023-03-26T02:50:17.813Z,93599.19
2023-03-26T02:53:41.815Z,93585.13
2023-03-26T02:57:03.690Z,93585.75
2023-03-26T03:00:26.388Z,93582.72
2023-03-26T03:03:50.483Z,93574.84
2023-03-26T03:07:15.273Z,93579.47
2023-03-26T03:10:22.403Z,93568.81
2023-03-26T03:13:49.443Z,93567.78
2023-03-26T03:17:11.382Z,93557.94
2023-03-26T03:20:14.503Z,93549.34
2023-03-26T03:23:17.901Z,93554.97
2023-03-26T03:26:24.149Z,93558.97
2023-03-26T03:29:28.872Z,93554.06
2023-03-26T03:32:37.111Z,93551.34
2023-03-26T03:35:42.064Z,93542.78
2023-03-26T03:38:46.729Z,93542.00
2023-03-26T03:41:54.261Z,93544.34
2023-03-26T03:44:58.090Z,93541.75
2023-03-26T03:48:20.415Z,93540.16
2023-03-26T03:51:25.390Z,93539.56
2023-03-26T03:55:03.231Z,93537.41
2023-03-26T03:58:22.292Z,93526.31
2023-03-26T04:01:27.799Z,93519.78
2023-03-26T04:04:36.470Z,93521.69
2023-03-26T04:07:42.197Z,93525.16
2023-03-26T04:11:00.508Z,93525.53
2023-03-26T04:14:41.433Z,93527.56
2023-03-26T04:17:49.253Z,93529.59
2023-03-26T04:20:55.188Z,93526.91
2023-03-26T04:24:03.750Z,93522.66
2023-03-26T04:27:35.181Z,93514.31
2023-03-26T04:30:54.304Z,93513.31
2023-03-26T04:34:20.279Z,93519.56
2023-03-26T04:37:46.969Z,93514.78
2023-03-26T04:40:54.582Z,93518.50
2023-03-26T04:44:15.189Z,93515.44
2023-03-26T04:47:27.617Z,93512.72
2023-03-26T04:50:30.847Z,93510.25
2023-03-26T04:53:36.093Z,93514.16
2023-03-26T04:57:05.271Z,93517.47
2023-03-26T05:00:22.090Z,93512.50
2023-03-26T05:03:35.834Z,93510.88
2023-03-26T05:06:44.021Z,93516.56
2023-03-26T05:09:58.045Z,93508.84
2023-03-26T05:13:13.996Z,93504.78
2023-03-26T05:16:23.028Z,93504.84
2023-03-26T05:19:33.325Z,93494.75
2023-03-26T05:22:38.118Z,93500.94
2023-03-26T05:25:52.441Z,93491.56
2023-03-26T05:28:58.861Z,93492.09
2023-03-26T05:32:09.890Z,93493.78
2023-03-26T05:35:14.045Z,93495.53
2023-03-26T05:38:18.759Z,93489.53
2023-03-26T05:41:22.511Z,93486.81
2023-03-26T05:44:26.714Z,93489.75
2023-03-26T05:47:30.809Z,93482.84
2023-03-26T05:50:34.101Z,93494.78
2023-03-26T05:53:37.236Z,93493.81
2023-03-26T05:56:58.020Z,93490.22
2023-03-26T06:00:19.362Z,93478.50
2023-03-26T06:03:23.688Z,93493.50
2023-03-26T06:06:33.277Z,93491.28
2023-03-26T06:09:40.775Z,93489.34
2023-03-26T06:12:44.525Z,93483.88
2023-03-26T06:15:49.139Z,93487.72
2023-03-26T06:19:14.094Z,93490.66
2023-03-26T06:22:48.340Z,93488.66
2023-03-26T06:26:11.843Z,93485.44
2023-03-26T06:29:33.325Z,93475.72
2023-03-26T06:32:49.914Z,93479.84
2023-03-26T06:35:59.652Z,93471.78
2023-03-26T06:39:02.536Z,93464.56
2023-03-26T06:42:16.661Z,93469.91
2023-03-26T06:45:20.318Z,93482.31
2023-03-26T06:48:53.222Z,93475.47
2023-03-26T06:52:32.168Z,93469.75
2023-03-26T06:55:59.343Z,93467.31
2023-03-26T06:59:24.736Z,93464.66
2023-03-26T07:02:47.145Z,93474.13
2023-03-26T07:06:09.739Z,93465.84
2023-03-26T07:09:31.730Z,93472.53
2023-03-26T07:13:10.922Z,93480.13
2023-03-26T07:16:44.126Z,93475.28
2023-03-26T07:20:11.877Z,93471.56
2023-03-26T07:23:20.922Z,93474.91
2023-03-26T07:26:50.152Z,93477.63
2023-03-26T07:30:02.830Z,93472.94
2023-03-26T07:34:04.564Z,93469.13
2023-03-26T07:37:46.109Z,93471.38
2023-03-26T07:41:39.624Z,93457.22
2023-03-26T07:45:26.722Z,93464.56
2023-03-26T07:48:49.411Z,93470.16
2023-03-26T07:52:13.435Z,93462.75
2023-03-26T07:55:33.265Z,93460.00
2023-03-26T07:59:11.805Z,93464.78
2023-03-26T08:02:44.781Z,93456.06
2023-03-26T08:06:19.806Z,93459.69
2023-03-26T08:10:00.342Z,93458.94
2023-03-26T08:13:28.106Z,93462.69
2023-03-26T08:16:44.038Z,93465.41
2023-03-26T08:19:58.579Z,93466.44
2023-03-26T08:23:50.560Z,93459.00
2023-03-26T08:27:14.757Z,93461.16
2023-03-26T08:30:28.451Z,93458.53
2023-03-26T08:33:31.753Z,93454.66
2023-03-26T08:36:34.786Z,93449.41
2023-03-26T08:39:42.625Z,93452.94
2023-03-26T08:43:23.652Z,93446.41
2023-03-26T08:46:43.034Z,93450.69
2023-03-26T08:50:08.092Z,93455.28
2023-03-26T08:53:32.632Z,93462.22
2023-03-26T08:56:53.837Z,93461.59
2023-03-26T09:00:23.218Z,93463.88
2023-03-26T09:03:44.312Z,93453.31
2023-03-26T09:07:07.909Z,93457.69
2023-03-26T09:10:19.405Z,93460.25
2023-03-26T09:13:35.285Z,93459.25
2023-03-26T09:16:44.183Z,93457.16
2023-03-26T09:20:24.767Z,93458.31
2023-03-26T09:23:39.570Z,93441.75
2023-03-26T09:26:48.599Z,93448.53
2023-03-26T09:30:05.584Z,93450.69
2023-03-26T09:33:30.141Z,93455.06
2023-03-26T09:36:46.069Z,93452.03
2023-03-26T09:40:05.696Z,93458.00
2023-03-26T09:43:27.140Z,93453.31
2023-03-26T09:46:52.311Z,93453.47
2023-03-26T09:50:04.626Z,93461.72
2023-03-26T09:53:16.530Z,93453.50
2023-03-26T09:56:51.537Z,93458.56
2023-03-26T10:00:29.651Z,93452.53
2023-03-26T10:03:54.965Z,93455.78
2023-03-26T10:07:06.697Z,93460.50
2023-03-26T10:10:10.059Z,93461.19
2023-03-26T10:13:34.825Z,93462.88
2023-03-26T10:16:59.571Z,93470.63
2023-03-26T10:20:18.219Z,93473.97
2023-03-26T10:23:33.496Z,93475.25
2023-03-26T10:27:08.384Z,93473.84
2023-03-26T10:30:20.701Z,93478.69
2023-03-26T10:33:30.406Z,93485.16
2023-03-26T10:36:36.838Z,93490.00
2023-03-26T10:40:09.010Z,93489.16
2023-03-26T10:43:28.524Z,93495.72
2023-03-26T10:47:11.841Z,93487.56
2023-03-26T10:50:23.509Z,93497.47
2023-03-26T10:53:51.669Z,93501.69
2023-03-26T10:56:57.777Z,93506.31
2023-03-26T11:00:14.131Z,93505.75
2023-03-26T11:03:28.334Z,93510.38
2023-03-26T11:06:41.987Z,93508.25
2023-03-26T11:10:02.947Z,93510.38
2023-03-26T11:13:45.731Z,93510.75
2023-03-26T11:17:40.842Z,93524.84
2023-03-26T11:20:54.612Z,93535.22
2023-03-26T11:24:50.112Z,93536.88
2023-03-26T11:28:10.521Z,93539.81
2023-03-26T11:31:37.935Z,93543.34
2023-03-26T11:35:18.269Z,93544.59
2023-03-26T11:39:11.379Z,93555.84
2023-03-26T11:42:18.252Z,93563.19
2023-03-26T11:45:25.701Z,93560.81
2023-03-26T11:48:35.049Z,93567.66
2023-03-26T11:51:43.692Z,93569.72
2023-03-26T11:54:49.334Z,93579.81
2023-03-26T11:57:58.118Z,93578.53
2023-03-26T12:01:06.266Z,93576.34
2023-03-26T12:04:15.104Z,93579.72
2023-03-26T12:11:04.371Z,93591.50
2023-03-26T12:14:08.139Z,93595.31
2023-03-26T12:17:31.475Z,93594.63
2023-03-26T12:20:37.578Z,93601.94
2023-03-26T12:24:00.599Z,93604.53
2023-03-26T12:27:22.932Z,93609.34
2023-03-26T12:30:29.186Z,93605.72
2023-03-26T12:33:36.029Z,93607.91
2023-03-26T12:36:39.821Z,93602.81
2023-03-26T12:40:10.169Z,93609.50
2023-03-26T12:44:54.972Z,93623.41
2023-03-26T12:47:57.272Z,93625.34
2023-03-26T12:50:15.223Z,93618.44
2023-03-26T12:53:30.596Z,93626.44
2023-03-26T12:56:45.266Z,93633.66
2023-03-26T13:00:05.020Z,93639.91
2023-03-26T13:03:44.390Z,93634.88
2023-03-26T13:07:00.437Z,93636.00
2023-03-26T13:10:09.029Z,93646.53
2023-03-26T13:13:32.347Z,93636.72
2023-03-26T13:17:28.034Z,93641.50
2023-03-26T13:20:52.446Z,93635.69
2023-03-26T13:24:01.808Z,93634.56
2023-03-26T13:27:38.864Z,93637.19
2023-03-26T13:30:54.052Z,93645.59
2023-03-26T13:34:11.049Z,93643.06
2023-03-26T13:37:31.520Z,93647.75
2023-03-26T13:41:14.575Z,93644.78
2023-03-26T13:44:45.361Z,93646.34
2023-03-26T13:47:51.735Z,93649.28
2023-03-26T13:51:46.712Z,93655.81
2023-03-26T13:55:19.018Z,93655.78
2023-03-26T13:58:34.394Z,93644.13
2023-03-26T14:01:47.341Z,93647.06
2023-03-26T14:05:00.522Z,93643.84
2023-03-26T14:08:21.195Z,93638.69
2023-03-26T14:11:44.518Z,93652.88
2023-03-26T14:15:19.334Z,93646.31
2023-03-26T14:18:47.160Z,93644.50
2023-03-26T14:22:22.703Z,93653.94
2023-03-26T14:26:03.381Z,93654.63
2023-03-26T14:29:15.677Z,93647.69
2023-03-26T14:32:33.945Z,93650.59
2023-03-26T14:35:43.660Z,93648.88
2023-03-26T14:39:13.805Z,93647.84
2023-03-26T14:42:46.970Z,93658.38
2023-03-26T14:46:14.720Z,93657.69
2023-03-26T14:49:36.648Z,93656.97
2023-03-26T14:53:01.172Z,93650.38
2023-03-26T14:56:15.068Z,93656.22
2023-03-26T14:59:30.498Z,93661.31
2023-03-26T15:03:08.917Z,93654.03
2023-03-26T15:06:23.735Z,93651.47
2023-03-26T15:09:47.204Z,93650.69
2023-03-26T15:13:27.919Z,93654.34
2023-03-26T15:17:10.158Z,93645.94
2023-03-26T15:20:33.166Z,93641.19
2023-03-26T15:23:47.217Z,93642.19
2023-03-26T15:27:11.671Z,93648.66
2023-03-26T15:30:37.352Z,93652.72
2023-03-26T15:34:21.939Z,93649.50
2023-03-26T15:37:57.749Z,93651.31
2023-03-26T15:41:28.696Z,93648.00
2023-03-26T15:44:55.483Z,93642.91
2023-03-26T15:48:14.464Z,93646.13
2023-03-26T15:51:47.491Z,93643.56
2023-03-26T15:55:19.568Z,93649.25
2023-03-26T15:58:31.800Z,93644.19
2023-03-26T16:02:08.062Z,93636.16
2023-03-26T16:05:28.686Z,93640.53
2023-03-26T16:08:53.416Z,93639.22
2023-03-26T16:12:00.095Z,93643.28
2023-03-26T16:15:07.802Z,93642.25
2023-03-26T16:18:12.866Z,93638.56
2023-03-26T16:21:37.656Z,93636.34
2023-03-26T16:24:47.557Z,93634.75
2023-03-26T16:28:08.306Z,93639.44
2023-03-26T16:31:35.080Z,93639.69
2023-03-26T16:34:51.210Z,93640.03
2023-03-26T16:38:14.588Z,93642.97
2023-03-26T16:41:30.499Z,93636.78
2023-03-26T16:45:01.686Z,93634.94
2023-03-26T16:48:08.276Z,93645.41
2023-03-26T16:51:24.833Z,93646.56
2023-03-26T16:54:47.943Z,93636.78
2023-03-26T16:58:12.832Z,93649.13
2023-03-26T17:01:43.483Z,93642.97
2023-03-26T17:04:52.401Z,93651.66
2023-03-26T17:08:01.726Z,93651.66
2023-03-26T17:11:26.350Z,93649.72
2023-03-26T17:14:34.962Z,93650.44
2023-03-26T17:18:16.343Z,93652.59
2023-03-26T17:21:22.757Z,93649.00
2023-03-26T17:24:35.630Z,93654.44
2023-03-26T17:28:17.991Z,93650.78
2023-03-26T17:31:56.904Z,93647.16
2023-03-26T17:35:08.139Z,93649.72
2023-03-26T17:38:31.994Z,93658.78
2023-03-26T17:41:55.215Z,93652.78
2023-03-26T17:45:18.565Z,93672.72
2023-03-26T17:48:24.517Z,93667.59
2023-03-26T17:51:39.225Z,93661.75
2023-03-26T17:54:45.923Z,93659.53
2023-03-26T17:57:57.220Z,93661.38
2023-03-26T18:01:36.625Z,93673.75
2023-03-26T18:04:45.650Z,93680.91
2023-03-26T18:08:19.794Z,93679.75
2023-03-26T18:11:42.190Z,93674.72
2023-03-26T18:15:36.684Z,93676.41
2023-03-26T18:18:40.374Z,93672.25
2023-03-26T18:21:45.812Z,93673.66
2023-03-26T18:24:50.120Z,93672.88
2023-03-26T18:27:54.225Z,93669.13
2023-03-26T18:31:09.991Z,93664.97
2023-03-26T18:34:19.597Z,93658.56
2023-03-26T18:37:36.718Z,93661.53
2023-03-26T18:40:45.085Z,93662.66
2023-03-26T18:43:48.780Z,93657.53
2023-03-26T18:46:56.884Z,93653.78
2023-03-26T18:50:01.055Z,93655.44
2023-03-26T18:53:07.874Z,93651.09
2023-03-26T18:56:37.746Z,93649.59
2023-03-26T18:59:46.147Z,93651.06
2023-03-26T19:02:52.221Z,93636.50
2023-03-26T19:05:59.096Z,93635.75
2023-03-26T19:09:13.525Z,93634.69
2023-03-26T19:12:33.383Z,93646.22
2023-03-26T19:15:37.200Z,93636.31
2023-03-26T19:18:44.163Z,93640.88
2023-03-26T19:21:47.444Z,93633.88
2023-03-26T19:24:56.771Z,93634.59
2023-03-26T19:28:00.563Z,93625.59
2023-03-26T19:31:23.861Z,93626.63
2023-03-26T19:34:32.175Z,93621.56
2023-03-26T19:37:35.635Z,93618.69
2023-03-26T19:40:43.813Z,93624.09
2023-03-26T19:47:31.934Z,93628.88
2023-03-26T19:50:43.888Z,93620.97
2023-03-26T19:51:18.146Z,93624.38
2023-03-26T19:53:52.181Z,93623.63
2023-03-26T19:56:55.361Z,93609.34
2023-03-26T19:59:59.096Z,93610.59
2023-03-26T20:03:02.192Z,93604.91
2023-03-26T20:06:06.339Z,93610.59
2023-03-26T20:09:11.872Z,93603.19
2023-03-26T20:12:16.123Z,93601.97
2023-03-26T20:15:24.377Z,93598.09
2023-03-26T20:18:28.433Z,93596.28
2023-03-26T20:21:33.302Z,93591.31
2023-03-26T20:24:36.236Z,93586.50
2023-03-26T20:27:40.132Z,93596.66
2023-03-26T20:30:43.236Z,93590.97
2023-03-26T20:33:48.879Z,93596.44
2023-03-26T20:36:55.876Z,93604.88
2023-03-26T20:40:00.459Z,93602.75
2023-03-26T20:43:04.218Z,93599.25
2023-03-26T20:46:08.293Z,93604.78
2023-03-26T20:49:13.239Z,93603.28
2023-03-26T20:52:16.487Z,93603.53
2023-03-26T20:55:24.249Z,93607.38
2023-03-26T20:58:30.776Z,93613.50
2023-03-26T21:01:35.918Z,93601.69
2023-03-26T21:04:39.958Z,93604.31
2023-03-26T21:07:43.611Z,93600.28
2023-03-26T21:10:48.638Z,93605.47
2023-03-26T21:14:00.703Z,93609.19
2023-03-26T21:17:05.062Z,93611.91
2023-03-26T21:20:12.107Z,93606.38
2023-03-26T21:23:31.215Z,93609.06
2023-03-26T21:26:59.760Z,93611.38
2023-03-26T21:30:07.094Z,93608.44
2023-03-26T21:33:10.730Z,93615.13
2023-03-26T21:36:15.105Z,93612.91
2023-03-26T21:39:18.813Z,93609.72
2023-03-26T21:42:22.406Z,93613.50
2023-03-26T21:45:27.292Z,93603.56
2023-03-26T21:48:30.580Z,93612.69
2023-03-26T21:51:34.480Z,93609.13
2023-03-26T21:54:37.689Z,93607.47
2023-03-26T21:57:56.039Z,93619.94
2023-03-26T22:01:17.612Z,93627.25
2023-03-26T22:04:32.713Z,93625.88
2023-03-26T22:07:54.428Z,93629.34
2023-03-26T22:10:58.817Z,93632.72
2023-03-26T22:14:03.342Z,93634.84
2023-03-26T22:17:07.627Z,93636.28
2023-03-26T22:20:13.292Z,93644.28
2023-03-26T22:23:19.882Z,93646.59
2023-03-26T22:26:24.836Z,93653.44
2023-03-26T22:29:28.959Z,93658.13
2023-03-26T22:32:34.950Z,93652.34
2023-03-26T22:35:45.994Z,93661.81
2023-03-26T22:38:49.775Z,93663.22
2023-03-26T22:41:53.015Z,93656.66
2023-03-26T22:44:56.030Z,93660.09
2023-03-26T22:48:03.744Z,93663.31
2023-03-26T22:51:09.787Z,93660.91
2023-03-26T22:54:13.769Z,93663.28
2023-03-26T22:57:18.104Z,93658.69
2023-03-26T23:00:22.562Z,93665.28
2023-03-26T23:03:35.263Z,93678.31
2023-03-26T23:06:39.359Z,93665.88
2023-03-26T23:09:42.884Z,93666.94
2023-03-26T23:12:46.208Z,93665.13
2023-03-26T23:15:57.794Z,93674.56
2023-03-26T23:19:01.409Z,93665.63
2023-03-26T23:22:05.097Z,93670.34
2023-03-26T23:25:10.440Z,93678.88
2023-03-26T23:28:15.097Z,93684.97
2023-03-26T23:31:18.600Z,93682.06
2023-03-26T23:34:22.468Z,93675.78
2023-03-26T23:37:26.118Z,93678.31
2023-03-26T23:40:29.757Z,93681.19
2023-03-26T23:43:33.960Z,93680.31
2023-03-26T23:46:37.534Z,93681.63
2023-03-26T23:49:40.417Z,93686.66
2023-03-26T23:52:46.656Z,93692.75
2023-03-26T23:55:52.225Z,93694.06
2023-03-26T23:58:56.541Z,93692.41
